Time;durP1;ratioP1;P1;durP2;ratioP2;P2;SDS_P1;SDS_P2;PMS_P1;PMS_P2;Temp;Humidity;BMP_temperature;BMP_pressure;BME280_temperature;BME280_humidity;BME280_pressure;Samples;Min_cycle;Max_cycle;Signal;HPM_P1;HPM_P2
2022/09/23 00:01:45;;;;;;;1999.90;999.90;;;9.10;99.90;;;;;;5028749;28;20123;-64
2022/09/23 00:04:11;;;;;;;1999.90;999.90;;;9.10;99.90;;;;;;5025146;28;20457;-64
2022/09/23 00:06:38;;;;;;;1999.90;999.90;;;9.10;99.90;;;;;;5023948;28;20052;-64
2022/09/23 00:09:04;;;;;;;1999.90;999.90;;;9.20;99.90;;;;;;5027514;28;20041;-65
2022/09/23 00:11:29;;;;;;;1999.90;999.90;;;9.10;99.90;;;;;;5028135;28;20375;-64
2022/09/23 00:13:57;;;;;;;1999.90;999.90;;;9.10;99.90;;;;;;5028911;28;20084;-64
2022/09/23 00:16:29;;;;;;;1999.90;999.90;;;9.10;99.90;;;;;;5025135;28;20902;-64
2022/09/23 00:18:55;;;;;;;1999.90;999.90;;;9.20;99.90;;;;;;5027974;28;20045;-64
2022/09/23 00:21:21;;;;;;;1999.90;999.90;;;9.10;99.90;;;;;;5024191;28;20116;-64
2022/09/23 00:23:47;;;;;;;1999.90;999.90;;;9.10;99.90;;;;;;5023025;28;20091;-64
2022/09/23 00:26:17;;;;;;;1999.90;999.90;;;9.10;99.90;;;;;;5032836;28;20175;-64
2022/09/23 00:28:43;;;;;;;1999.90;999.90;;;9.10;99.90;;;;;;5041328;28;20041;-64
2022/09/23 00:31:12;;;;;;;1999.90;999.90;;;9.10;99.90;;;;;;5028558;28;20141;-64
2022/09/23 00:33:39;;;;;;;1999.90;999.90;;;9.00;99.90;;;;;;5023813;28;20049;-65
2022/09/23 00:36:08;;;;;;;1999.90;999.90;;;9.00;99.90;;;;;;5026835;28;20100;-64
2022/09/23 00:38:33;;;;;;;1999.90;999.90;;;8.90;99.90;;;;;;5018597;28;20387;-65
2022/09/23 00:40:59;;;;;;;1999.90;999.90;;;8.90;99.90;;;;;;5025944;28;20043;-64
2022/09/23 00:43:47;;;;;;;1999.90;999.90;;;8.90;99.90;;;;;;5020715;28;20765;-64
2022/09/23 00:46:33;;;;;;;1999.90;999.90;;;8.90;99.90;;;;;;5022956;28;20468;-64
2022/09/23 00:49:22;;;;;;;1999.90;999.90;;;8.90;99.90;;;;;;5014021;28;20563;-64
2022/09/23 00:51:57;;;;;;;1999.90;999.90;;;8.90;99.90;;;;;;5022645;28;20081;-64
2022/09/23 00:54:26;;;;;;;1999.90;999.90;;;8.90;99.90;;;;;;5018497;28;20095;-64
2022/09/23 00:56:52;;;;;;;1999.90;999.90;;;8.80;99.90;;;;;;5025444;28;20497;-64
2022/09/23 00:59:18;;;;;;;1999.90;999.90;;;8.80;99.90;;;;;;5010277;28;20045;-64
2022/09/23 01:01:45;;;;;;;1999.90;999.90;;;8.80;99.90;;;;;;5020421;28;20048;-64
2022/09/23 01:04:11;;;;;;;1999.90;999.90;;;8.80;99.90;;;;;;5023678;28;20084;-64
2022/09/23 01:06:37;;;;;;;1999.90;999.90;;;8.80;99.90;;;;;;4994417;28;20049;-64
2022/09/23 01:09:03;;;;;;;1999.90;999.90;;;8.90;99.90;;;;;;5016022;28;20501;-64
2022/09/23 01:11:50;;;;;;;1999.90;999.90;;;8.90;99.90;;;;;;5026256;28;20050;-64
2022/09/23 01:14:30;;;;;;;1999.90;999.90;;;8.90;99.90;;;;;;5021135;28;20057;-64
2022/09/23 01:17:09;;;;;;;1999.90;999.90;;;8.90;99.90;;;;;;5025398;28;20045;-64
2022/09/23 01:20:12;;;;;;;1999.90;999.90;;;8.90;99.90;;;;;;5024234;28;20057;-64
2022/09/23 01:22:51;;;;;;;1999.90;999.90;;;9.00;99.90;;;;;;5016029;28;20050;-64
2022/09/23 01:25:31;;;;;;;1999.90;999.90;;;8.90;99.90;;;;;;5024145;28;20041;-64
2022/09/23 01:28:16;;;;;;;1999.90;999.90;;;9.00;99.90;;;;;;5020116;28;20040;-64
2022/09/23 01:30:47;;;;;;;1999.90;999.90;;;9.00;99.90;;;;;;5033101;28;20056;-64
2022/09/23 01:33:45;;;;;;;1999.90;999.90;;;9.00;99.90;;;;;;5025714;28;20474;-64
2022/09/23 01:36:35;;;;;;;1999.90;999.90;;;9.10;99.90;;;;;;5027390;28;20045;-64
2022/09/23 01:39:23;;;;;;;1999.90;999.90;;;9.10;99.90;;;;;;5027740;28;20044;-64
2022/09/23 01:42:38;;;;;;;1999.90;999.90;;;9.20;99.90;;;;;;5016868;28;20484;-64
2022/09/23 01:45:21;;;;;;;1999.90;999.90;;;9.20;99.90;;;;;;5023834;28;20049;-64
2022/09/23 01:47:53;;;;;;;1999.90;999.90;;;9.20;99.90;;;;;;5023550;28;20053;-64
2022/09/23 01:53:18;;;;;;;1999.90;999.90;;;9.30;99.90;;;;;;5002608;28;20057;-64
2022/09/23 01:55:49;;;;;;;1999.90;999.90;;;9.30;99.90;;;;;;5024766;28;20056;-64
2022/09/23 01:58:28;;;;;;;1999.90;999.90;;;9.30;99.90;;;;;;5003142;28;20120;-64
2022/09/23 02:01:00;;;;;;;1999.90;999.90;;;9.30;99.90;;;;;;5019789;28;20041;-64
2022/09/23 02:03:32;;;;;;;1999.90;999.90;;;9.30;99.90;;;;;;5005040;28;20048;-64
2022/09/23 02:06:07;;;;;;;1999.90;999.90;;;9.30;99.90;;;;;;5019361;28;20057;-65
2022/09/23 02:08:49;;;;;;;1999.90;999.90;;;9.40;99.90;;;;;;5017699;28;20134;-65
2022/09/23 02:11:16;;;;;;;1999.90;999.90;;;9.50;99.90;;;;;;5023290;28;20044;-64
2022/09/23 02:13:52;;;;;;;1999.90;999.90;;;9.50;99.90;;;;;;5016402;28;20126;-64
2022/09/23 02:16:25;;;;;;;1999.90;999.90;;;9.40;99.90;;;;;;5007418;28;20049;-64
2022/09/23 02:19:05;;;;;;;1999.90;999.90;;;9.40;99.90;;;;;;5019382;28;20048;-64
2022/09/23 02:21:35;;;;;;;1999.90;999.90;;;9.40;99.90;;;;;;5030888;28;20141;-64
2022/09/23 02:24:09;;;;;;;1999.90;999.90;;;9.30;99.90;;;;;;5023423;28;20122;-64
2022/09/23 02:27:06;;;;;;;1999.90;999.90;;;9.30;99.90;;;;;;5028339;28;20107;-64
2022/09/23 02:29:43;;;;;;;1999.90;999.90;;;9.20;99.90;;;;;;5021780;28;20053;-64
2022/09/23 02:32:09;;;;;;;1999.90;999.90;;;9.20;99.90;;;;;;5018213;28;20144;-64
2022/09/23 02:34:58;;;;;;;1999.90;999.90;;;9.20;99.90;;;;;;5005657;28;20131;-64
2022/09/23 02:37:37;;;;;;;1999.90;999.90;;;9.10;99.90;;;;;;5024757;28;20037;-65
2022/09/23 02:40:22;;;;;;;1999.90;999.90;;;9.10;99.90;;;;;;5027913;28;20033;-64
2022/09/23 02:43:02;;;;;;;1999.90;999.90;;;9.10;99.90;;;;;;5015028;28;20073;-64
2022/09/23 02:45:27;;;;;;;1999.90;999.90;;;9.10;99.90;;;;;;5027732;28;20130;-64
2022/09/23 02:48:02;;;;;;;1999.90;999.90;;;9.10;99.90;;;;;;5020929;28;20053;-64
2022/09/23 02:50:29;;;;;;;1999.90;999.90;;;9.10;99.90;;;;;;5022190;28;20088;-64
2022/09/23 02:52:56;;;;;;;1999.90;999.90;;;9.10;99.90;;;;;;5025402;28;20099;-64
2022/09/23 02:55:24;;;;;;;1999.90;999.90;;;9.20;99.90;;;;;;5004911;28;20547;-64
2022/09/23 02:57:52;;;;;;;1999.90;999.90;;;9.10;99.90;;;;;;5024668;28;20128;-64
2022/09/23 03:00:17;;;;;;;1999.90;999.90;;;9.10;99.90;;;;;;5022517;28;20096;-64
2022/09/23 03:03:11;;;;;;;1999.90;999.90;;;9.10;99.90;;;;;;5022726;28;20049;-64
2022/09/23 03:05:47;;;;;;;1999.90;999.90;;;9.10;99.90;;;;;;5041668;28;20049;-64
2022/09/23 03:08:28;;;;;;;1999.90;999.90;;;9.10;99.90;;;;;;5021323;28;20048;-65
2022/09/23 03:11:04;;;;;;;1999.90;999.90;;;9.00;99.90;;;;;;5019860;28;20512;-64
2022/09/23 03:14:18;;;;;;;1999.90;999.90;;;9.10;99.90;;;;;;5019329;28;20046;-65
2022/09/23 03:17:02;;;;;;;1999.90;999.90;;;9.00;99.90;;;;;;5015057;28;20054;-64
2022/09/23 03:19:33;;;;;;;1999.90;999.90;;;9.00;99.90;;;;;;5021014;28;20045;-64
2022/09/23 03:22:11;;;;;;;1999.90;999.90;;;9.00;99.90;;;;;;5004327;28;20041;-64
2022/09/23 03:24:38;;;;;;;1999.90;999.90;;;9.00;99.90;;;;;;5027035;28;20086;-64
2022/09/23 03:27:12;;;;;;;1999.90;999.90;;;9.00;99.90;;;;;;5023141;28;20049;-64
2022/09/23 03:29:44;;;;;;;1999.90;999.90;;;8.90;99.90;;;;;;5016698;28;20754;-64
2022/09/23 03:32:11;;;;;;;1999.90;999.90;;;8.90;99.90;;;;;;5026432;28;20050;-64
2022/09/23 03:34:41;;;;;;;1999.90;999.90;;;8.90;99.90;;;;;;5025426;28;20049;-64
2022/09/23 03:37:14;;;;;;;1999.90;999.90;;;8.90;99.90;;;;;;5021142;28;20044;-64
2022/09/23 03:39:39;;;;;;;;;;;8.90;99.90;;;;;;5029131;28;20072;-64
2022/09/23 03:42:27;;;;;;;1999.90;999.90;;;8.80;99.90;;;;;;5025964;28;20352;-64
2022/09/23 03:44:56;;;;;;;1999.90;999.90;;;8.80;99.90;;;;;;5027550;28;20129;-64
2022/09/23 03:47:25;;;;;;;1999.90;999.90;;;8.80;99.90;;;;;;5022839;28;20046;-64
2022/09/23 03:49:51;;;;;;;1999.90;999.90;;;8.80;99.90;;;;;;5022820;28;20052;-64
2022/09/23 03:52:26;;;;;;;1999.90;999.90;;;8.80;99.90;;;;;;5025131;28;20044;-64
2022/09/23 03:54:52;;;;;;;1999.90;999.90;;;8.80;99.90;;;;;;5022230;28;20038;-64
2022/09/23 03:57:20;;;;;;;1999.90;999.90;;;8.70;99.90;;;;;;5016554;28;20086;-64
2022/09/23 03:59:47;;;;;;;1999.90;999.90;;;8.70;99.90;;;;;;5025537;28;20814;-65
2022/09/23 04:02:15;;;;;;;1999.90;999.90;;;8.70;99.90;;;;;;5027915;28;20738;-64
2022/09/23 04:04:42;;;;;;;1999.90;999.90;;;8.70;99.90;;;;;;5023963;28;20092;-64
2022/09/23 04:07:09;;;;;;;1999.90;999.90;;;8.70;99.90;;;;;;5023910;28;20056;-64
2022/09/23 04:09:35;;;;;;;1999.90;999.90;;;8.60;99.90;;;;;;5026599;28;20041;-65
2022/09/23 04:12:02;;;;;;;1999.90;999.90;;;8.60;99.90;;;;;;5029051;28;20057;-64
2022/09/23 04:14:28;;;;;;;1999.90;999.90;;;8.60;99.90;;;;;;5026129;28;20042;-64
2022/09/23 04:16:54;;;;;;;1999.90;999.90;;;8.50;99.90;;;;;;5036079;28;20107;-64
2022/09/23 04:19:19;;;;;;;1999.90;999.90;;;8.60;99.90;;;;;;5028175;28;20794;-64
2022/09/23 04:21:46;;;;;;;1999.90;999.90;;;8.60;99.90;;;;;;5026205;28;20037;-64
2022/09/23 04:24:12;;;;;;;1999.90;999.90;;;8.50;99.90;;;;;;5034037;28;20072;-64
2022/09/23 04:26:38;;;;;;;1999.90;999.90;;;8.50;99.90;;;;;;5027547;28;20837;-64
2022/09/23 04:29:04;;;;;;;1999.90;999.90;;;8.50;99.90;;;;;;5017974;28;20087;-64
2022/09/23 04:31:31;;;;;;;1999.90;999.90;;;8.50;99.90;;;;;;5020393;28;20700;-64
2022/09/23 04:33:57;;;;;;;1999.90;999.90;;;8.50;99.90;;;;;;5021155;28;20084;-64
2022/09/23 04:36:23;;;;;;;1999.90;999.90;;;8.40;99.90;;;;;;5033749;28;20076;-64
2022/09/23 04:38:49;;;;;;;1999.90;999.90;;;8.50;99.90;;;;;;5040988;28;20044;-64
2022/09/23 04:41:16;;;;;;;1999.90;999.90;;;8.50;99.90;;;;;;5027246;28;20390;-64
2022/09/23 04:43:43;;;;;;;1999.90;999.90;;;8.50;99.90;;;;;;5005981;28;20053;-64
2022/09/23 04:46:11;;;;;;;1999.90;999.90;;;8.50;99.90;;;;;;5025413;28;20540;-64
2022/09/23 04:48:38;;;;;;;1999.90;999.90;;;8.50;99.90;;;;;;5019302;28;20092;-64
2022/09/23 04:51:14;;;;;;;1999.90;999.90;;;8.40;99.90;;;;;;5021015;28;20588;-64
2022/09/23 04:53:41;;;;;;;1999.90;999.90;;;8.40;99.90;;;;;;5033492;28;20049;-64
2022/09/23 04:56:11;;;;;;;1999.90;999.90;;;8.40;99.90;;;;;;5028021;28;20046;-64
2022/09/23 04:58:38;;;;;;;1999.90;999.90;;;8.40;99.90;;;;;;5025777;28;20545;-64
2022/09/23 05:01:33;;;;;;;1999.90;999.90;;;8.40;99.90;;;;;;5026312;28;20469;-64
2022/09/23 05:04:01;;;;;;;1999.90;999.90;;;8.40;99.90;;;;;;5018981;28;20563;-64
2022/09/23 05:06:28;;;;;;;1999.90;999.90;;;8.40;99.90;;;;;;5026689;28;20048;-64
2022/09/23 05:08:55;;;;;;;1999.90;999.90;;;8.40;99.90;;;;;;5025380;28;20478;-64
2022/09/23 05:11:22;;;;;;;1999.90;999.90;;;8.40;99.90;;;;;;5022026;28;20045;-64
2022/09/23 05:13:49;;;;;;;1999.90;999.90;;;8.40;99.90;;;;;;5028196;28;20752;-64
2022/09/23 05:16:17;;;;;;;1999.90;999.90;;;8.40;99.90;;;;;;5026902;28;20076;-64
2022/09/23 05:18:44;;;;;;;1999.90;999.90;;;8.30;99.90;;;;;;5025748;28;20052;-64
2022/09/23 05:21:11;;;;;;;1999.90;999.90;;;8.30;99.90;;;;;;5003091;28;20041;-64
2022/09/23 05:23:37;;;;;;;1999.90;999.90;;;8.30;99.90;;;;;;5027522;28;20095;-64
2022/09/23 05:26:06;;;;;;;1999.90;999.90;;;8.30;99.90;;;;;;5027664;28;20080;-64
2022/09/23 05:28:33;;;;;;;1999.90;999.90;;;8.30;99.90;;;;;;5020552;28;20045;-64
2022/09/23 05:31:03;;;;;;;1999.90;999.90;;;8.30;99.90;;;;;;5026147;28;20054;-64
2022/09/23 05:33:29;;;;;;;1999.90;999.90;;;8.30;99.90;;;;;;5023480;28;20088;-64
2022/09/23 05:35:54;;;;;;;1999.90;999.90;;;8.30;99.90;;;;;;5024819;28;20061;-64
2022/09/23 05:38:20;;;;;;;1999.90;999.90;;;8.30;99.90;;;;;;5022461;28;20048;-64
2022/09/23 05:40:45;;;;;;;1999.90;999.90;;;8.30;99.90;;;;;;5021299;28;20048;-64
2022/09/23 05:43:11;;;;;;;1999.90;999.90;;;8.40;99.90;;;;;;5027735;28;20554;-64
2022/09/23 05:45:36;;;;;;;1999.90;999.90;;;8.40;99.90;;;;;;5023778;28;20041;-64
2022/09/23 05:48:02;;;;;;;1999.90;999.90;;;8.40;99.90;;;;;;5022013;28;20144;-64
2022/09/23 05:50:27;;;;;;;1999.90;999.90;;;8.50;99.90;;;;;;5022253;28;20045;-64
2022/09/23 05:52:53;;;;;;;1999.90;999.90;;;8.50;99.90;;;;;;5018223;28;20038;-64
2022/09/23 05:55:19;;;;;;;1999.90;999.90;;;8.60;99.90;;;;;;5021956;28;20045;-64
2022/09/23 05:57:44;;;;;;;1999.90;999.90;;;8.60;99.90;;;;;;5029172;28;20064;-64
2022/09/23 06:00:10;;;;;;;1999.90;999.90;;;8.70;99.90;;;;;;5028865;28;20080;-64
2022/09/23 06:02:36;;;;;;;1999.90;999.90;;;8.70;99.90;;;;;;5022729;28;20076;-65
2022/09/23 06:05:02;;;;;;;1999.90;999.90;;;8.80;99.90;;;;;;5017778;28;20516;-64
2022/09/23 06:07:27;;;;;;;1999.90;999.90;;;8.80;99.90;;;;;;5029411;28;20056;-64
2022/09/23 06:09:53;;;;;;;1999.90;999.90;;;8.90;99.90;;;;;;5032056;28;20041;-64
2022/09/23 06:12:19;;;;;;;1999.90;999.90;;;8.90;99.90;;;;;;5027681;28;20045;-64
2022/09/23 06:14:45;;;;;;;1999.90;999.90;;;8.90;99.90;;;;;;5026212;28;20049;-64
2022/09/23 06:17:10;;;;;;;1999.90;999.90;;;9.00;99.90;;;;;;5027951;28;20033;-64
2022/09/23 06:19:36;;;;;;;1999.90;999.90;;;9.00;99.90;;;;;;5018334;28;20044;-65
2022/09/23 06:22:01;;;;;;;1999.90;999.90;;;9.10;99.90;;;;;;5017588;28;20073;-64
2022/09/23 06:24:27;;;;;;;1999.90;999.90;;;9.10;99.90;;;;;;5026088;28;20053;-64
2022/09/23 06:26:52;;;;;;;1999.90;999.90;;;9.20;99.90;;;;;;5009500;28;20045;-64
2022/09/23 06:29:18;;;;;;;1999.90;999.90;;;9.30;99.90;;;;;;5021671;28;20111;-64
2022/09/23 06:31:43;;;;;;;1999.90;999.90;;;9.30;99.90;;;;;;5027686;28;20057;-64
2022/09/23 06:34:11;;;;;;;1999.90;999.90;;;9.40;99.90;;;;;;5030301;28;20813;-64
2022/09/23 06:36:36;;;;;;;1999.90;999.90;;;9.50;99.90;;;;;;5028673;28;20060;-64
2022/09/23 06:39:02;;;;;;;1999.90;999.90;;;9.60;99.90;;;;;;5022523;28;20513;-64
2022/09/23 06:41:27;;;;;;;1999.90;999.90;;;9.70;99.90;;;;;;5025385;28;20445;-64
2022/09/23 06:43:53;;;;;;;1999.90;999.90;;;9.80;99.90;;;;;;5014776;28;20049;-65
2022/09/23 06:46:19;;;;;;;1999.90;999.90;;;9.80;99.90;;;;;;5025963;28;20386;-64
2022/09/23 06:48:45;;;;;;;1999.90;999.90;;;9.90;99.90;;;;;;5034300;28;20041;-64
2022/09/23 06:51:17;;;;;;;1999.90;999.90;;;10.00;99.90;;;;;;5021801;28;20068;-64
2022/09/23 06:53:44;;;;;;;1999.90;999.90;;;10.10;99.90;;;;;;5036436;28;20053;-65
2022/09/23 06:56:10;;;;;;;1999.90;999.90;;;10.10;99.90;;;;;;5004245;28;20053;-64
2022/09/23 06:58:37;;;;;;;1999.90;999.90;;;10.10;99.90;;;;;;5029566;28;20044;-65
2022/09/23 07:01:05;;;;;;;1999.90;999.90;;;10.20;99.90;;;;;;5022694;28;20122;-64
2022/09/23 07:03:32;;;;;;;1999.90;999.90;;;10.30;99.90;;;;;;5023496;28;20045;-64
2022/09/23 07:05:59;;;;;;;1999.90;999.90;;;10.30;99.90;;;;;;5032095;28;20060;-64
2022/09/23 07:08:26;;;;;;;1999.90;999.90;;;10.30;99.90;;;;;;5022092;28;20040;-64
2022/09/23 07:10:57;;;;;;;1999.90;999.90;;;10.40;99.90;;;;;;5029510;28;20053;-65
2022/09/23 07:13:23;;;;;;;1999.90;999.90;;;10.40;99.90;;;;;;5032645;28;20038;-64
2022/09/23 07:15:50;;;;;;;1999.90;999.90;;;10.50;99.90;;;;;;5022734;28;20030;-64
2022/09/23 07:18:17;;;;;;;1999.90;999.90;;;10.50;99.90;;;;;;5041951;28;20053;-64
2022/09/23 07:20:42;;;;;;;1999.90;999.90;;;10.50;99.90;;;;;;5027751;28;20042;-65
2022/09/23 07:23:08;;;;;;;1999.90;999.90;;;10.60;99.90;;;;;;5021577;28;20049;-64
2022/09/23 07:25:33;;;;;;;1999.90;999.90;;;10.60;99.90;;;;;;5031056;28;20045;-65
2022/09/23 07:27:59;;;;;;;1999.90;999.90;;;10.70;99.90;;;;;;5009917;28;20065;-64
2022/09/23 07:30:25;;;;;;;1999.90;999.90;;;10.80;99.90;;;;;;5025175;28;20037;-64
2022/09/23 07:32:52;;;;;;;1999.90;999.90;;;10.90;99.90;;;;;;5035679;28;20053;-65
2022/09/23 07:35:17;;;;;;;1999.90;999.90;;;11.00;99.90;;;;;;5029395;28;20055;-65
2022/09/23 07:37:43;;;;;;;1999.90;999.90;;;11.10;99.90;;;;;;5028922;28;20033;-65
2022/09/23 07:40:09;;;;;;;1999.90;999.90;;;11.20;99.90;;;;;;5023303;28;20059;-65
2022/09/23 07:42:35;;;;;;;1999.90;999.90;;;11.40;99.90;;;;;;5028357;28;20128;-64
2022/09/23 07:45:01;;;;;;;1999.90;999.90;;;11.50;99.90;;;;;;5036813;28;20047;-64
2022/09/23 07:47:26;;;;;;;1999.90;999.90;;;11.60;99.90;;;;;;5026784;28;20513;-64
2022/09/23 07:49:53;;;;;;;1999.90;999.90;;;11.80;99.90;;;;;;5032380;28;20052;-64
2022/09/23 07:52:19;;;;;;;1999.90;999.90;;;11.90;99.90;;;;;;5022627;28;20053;-65
2022/09/23 07:54:47;;;;;;;1999.90;999.90;;;12.00;99.90;;;;;;5027019;28;20159;-64
2022/09/23 07:57:12;;;;;;;1999.90;999.90;;;12.00;99.90;;;;;;5027315;28;20056;-64
2022/09/23 07:59:39;;;;;;;1999.90;999.90;;;12.10;99.90;;;;;;5024467;28;20029;-64
2022/09/23 08:02:05;;;;;;;1999.90;999.90;;;12.20;99.90;;;;;;5025001;28;20095;-65
2022/09/23 08:04:33;;;;;;;1999.90;999.90;;;12.20;99.90;;;;;;5021940;28;20049;-65
2022/09/23 08:07:02;;;;;;;1999.90;999.90;;;12.30;99.90;;;;;;5024265;28;20047;-64
2022/09/23 08:09:32;;;;;;;1999.90;999.90;;;12.30;99.90;;;;;;5047255;28;20037;-64
2022/09/23 08:11:58;;;;;;;1999.90;999.90;;;12.40;99.90;;;;;;5013334;28;20123;-64
2022/09/23 08:14:24;;;;;;;1999.90;999.90;;;12.40;99.90;;;;;;5024260;28;20045;-65
2022/09/23 08:16:51;;;;;;;1999.90;999.90;;;12.50;99.90;;;;;;5022701;28;20044;-65
2022/09/23 08:19:17;;;;;;;1999.90;999.90;;;12.50;99.90;;;;;;5020267;28;20049;-65
2022/09/23 08:21:46;;;;;;;1999.90;999.90;;;12.60;99.90;;;;;;5021944;28;20486;-64
2022/09/23 08:24:17;;;;;;;1999.90;999.90;;;12.60;99.90;;;;;;5028652;28;20057;-65
2022/09/23 08:26:44;;;;;;;1999.90;999.90;;;12.70;99.90;;;;;;5016626;28;20038;-65
2022/09/23 08:29:14;;;;;;;1999.90;999.90;;;12.80;99.90;;;;;;5031601;28;20047;-64
2022/09/23 08:31:40;;;;;;;1999.90;999.90;;;12.90;99.90;;;;;;5032155;28;20148;-65
2022/09/23 08:34:06;;;;;;;1999.90;999.90;;;13.00;99.90;;;;;;5030641;28;20899;-64
2022/09/23 08:36:32;;;;;;;1999.90;999.90;;;13.10;99.90;;;;;;5041639;28;20052;-65
2022/09/23 08:38:58;;;;;;;1999.90;999.90;;;13.30;99.90;;;;;;5029660;28;20033;-65
2022/09/23 08:41:45;;;;;;;1999.90;999.90;;;13.50;99.90;;;;;;5026111;28;20037;-65
2022/09/23 08:44:23;;;;;;;1999.90;999.90;;;13.60;99.90;;;;;;5010715;28;20184;-65
2022/09/23 08:46:57;;;;;;;1999.90;999.90;;;13.70;99.90;;;;;;5023513;28;20076;-65
2022/09/23 08:49:31;;;;;;;1999.90;999.90;;;13.80;99.90;;;;;;5034755;28;20439;-65
2022/09/23 08:52:01;;;;;;;1999.90;999.90;;;13.90;99.90;;;;;;5039118;28;20049;-65
2022/09/23 08:54:30;;;;;;;1999.90;999.90;;;13.90;99.90;;;;;;5018656;28;20502;-64
2022/09/23 08:56:58;;;;;;;1999.90;999.90;;;14.00;99.90;;;;;;5021661;28;20045;-65
2022/09/23 08:59:29;;;;;;;1999.90;999.90;;;14.00;99.90;;;;;;5029180;28;20438;-64
2022/09/23 09:01:59;;;;;;;1999.90;999.90;;;14.00;99.90;;;;;;5021837;28;20041;-65
2022/09/23 09:04:47;;;;;;;1999.90;999.90;;;14.20;99.90;;;;;;5028563;28;20072;-65
2022/09/23 09:07:18;;;;;;;1999.90;999.90;;;14.20;99.90;;;;;;5044225;28;20069;-65
2022/09/23 09:10:02;;;;;;;1999.90;999.90;;;14.40;99.90;;;;;;5027924;28;20095;-64
2022/09/23 09:12:39;;;;;;;1999.90;999.90;;;14.50;99.90;;;;;;5027450;28;20045;-64
2022/09/23 09:15:25;;;;;;;1999.90;999.90;;;14.60;99.90;;;;;;5025582;28;20047;-65
2022/09/23 09:18:18;;;;;;;1999.90;999.90;;;14.70;99.90;;;;;;5025433;28;20048;-65
2022/09/23 09:20:56;;;;;;;;;;;14.80;99.90;;;;;;5025087;28;20038;-65
2022/09/23 09:23:37;;;;;;;1999.90;999.90;;;14.90;99.90;;;;;;5026362;28;20011;-65
2022/09/23 09:26:05;;;;;;;1999.90;999.90;;;15.00;99.90;;;;;;5013927;28;20081;-65
2022/09/23 09:28:43;;;;;;;1999.90;999.90;;;15.10;99.90;;;;;;5026306;28;20037;-65
2022/09/23 09:31:20;;;;;;;1999.90;999.90;;;15.20;99.90;;;;;;5030034;28;20064;-65
2022/09/23 09:33:59;;;;;;;1999.90;999.90;;;15.20;99.90;;;;;;5017084;28;20552;-65
2022/09/23 09:36:58;;;;;;;1999.90;999.90;;;15.30;99.90;;;;;;5023697;28;20095;-65
2022/09/23 09:39:24;;;;;;;1999.90;999.90;;;15.30;99.90;;;;;;5037329;28;20045;-65
2022/09/23 09:41:50;;;;;;;1999.90;999.90;;;15.30;99.90;;;;;;5034699;28;20052;-65
2022/09/23 09:44:24;;;;;;;1999.90;999.90;;;15.30;99.90;;;;;;5046621;28;20053;-65
2022/09/23 09:47:07;;;;;;;1999.90;999.90;;;15.30;99.90;;;;;;5024151;28;20051;-65
2022/09/23 09:49:47;;;;;;;1999.90;999.90;;;15.30;99.90;;;;;;5023893;28;20038;-65
2022/09/23 09:52:22;;;;;;;1999.90;999.90;;;15.20;99.90;;;;;;5033516;28;20049;-65
2022/09/23 09:54:49;;;;;;;1999.90;999.90;;;15.20;99.90;;;;;;5031659;28;20454;-65
2022/09/23 09:57:26;;;;;;;1999.90;999.90;;;15.20;99.90;;;;;;5025664;28;20034;-65
2022/09/23 09:59:52;;;;;;;1999.90;999.90;;;15.20;99.90;;;;;;5020236;28;20053;-65
2022/09/23 10:02:29;;;;;;;1999.90;999.90;;;15.10;99.90;;;;;;5020688;28;20059;-64
2022/09/23 10:05:01;;;;;;;1999.90;999.90;;;15.10;99.90;;;;;;5021685;28;20091;-65
2022/09/23 10:07:31;;;;;;;1999.90;999.90;;;15.20;99.90;;;;;;5028215;28;20541;-65
2022/09/23 10:09:57;;;;;;;1999.90;999.90;;;15.30;99.90;;;;;;5034408;28;20459;-65
2022/09/23 10:12:24;;;;;;;1999.90;999.90;;;15.40;99.90;;;;;;5023115;28;20124;-65
2022/09/23 10:14:54;;;;;;;1999.90;999.90;;;15.50;99.90;;;;;;5025182;28;20040;-65
2022/09/23 10:17:32;;;;;;;1999.90;999.90;;;15.60;99.90;;;;;;5020253;28;20043;-65
2022/09/23 10:20:00;;;;;;;1999.90;999.90;;;15.60;99.90;;;;;;5012346;28;20056;-65
2022/09/23 10:22:35;;;;;;;1999.90;999.90;;;15.60;99.90;;;;;;5023057;28;20056;-65
2022/09/23 10:25:06;;;;;;;1999.90;999.90;;;15.60;99.90;;;;;;5023428;28;20041;-65
2022/09/23 10:27:34;;;;;;;1999.90;999.90;;;15.50;99.90;;;;;;5038880;28;20120;-65
2022/09/23 10:30:21;;;;;;;1999.90;999.90;;;15.60;99.90;;;;;;5031286;28;20056;-65
2022/09/23 10:32:48;;;;;;;1999.90;999.90;;;15.50;99.90;;;;;;5021229;28;20054;-65
2022/09/23 10:35:21;;;;;;;1999.90;999.90;;;15.60;99.90;;;;;;5006987;28;20055;-65
2022/09/23 10:37:48;;;;;;;;;;;15.60;99.90;;;;;;5019228;28;20041;-65
2022/09/23 10:46:38;;;;;;;1999.90;999.90;;;15.80;99.90;;;;;;5022471;28;20505;-65
2022/09/23 10:49:29;;;;;;;1999.90;999.90;;;15.90;99.90;;;;;;5023706;28;20462;-65
2022/09/23 10:52:14;;;;;;;1999.90;999.90;;;16.10;99.90;;;;;;5032470;28;20045;-65
2022/09/23 10:54:45;;;;;;;1999.90;999.90;;;16.20;99.90;;;;;;5020599;28;20057;-64
2022/09/23 10:57:41;;;;;;;1999.90;999.90;;;16.30;99.90;;;;;;5021557;28;20045;-65
2022/09/23 11:00:21;;;;;;;1999.90;999.90;;;16.40;99.90;;;;;;5020725;28;20504;-65
2022/09/23 11:03:26;;;;;;;1999.90;999.90;;;16.40;99.90;;;;;;5031784;28;20903;-65
2022/09/23 11:06:10;;;;;;;1999.90;999.90;;;16.50;99.90;;;;;;5018893;28;20124;-65
2022/09/23 11:08:55;;;;;;;1999.90;999.90;;;16.50;99.90;;;;;;5013234;28;20050;-65
2022/09/23 11:11:47;;;;;;;1999.90;999.90;;;16.60;99.90;;;;;;5036477;28;20128;-65
2022/09/23 11:14:18;;;;;;;1999.90;999.90;;;16.60;99.90;;;;;;5024562;28;20050;-65
2022/09/23 11:17:06;;;;;;;1999.90;999.90;;;16.70;99.90;;;;;;5016988;28;20044;-65
2022/09/23 11:19:50;;;;;;;1999.90;999.90;;;16.70;99.90;;;;;;5017862;28;20156;-65
2022/09/23 11:22:37;;;;;;;1999.90;999.90;;;16.80;99.90;;;;;;5021782;28;20041;-65
2022/09/23 11:25:45;;;;;;;1999.90;999.90;;;16.80;99.90;;;;;;5017010;28;20037;-65
2022/09/23 11:28:35;;;;;;;1999.90;999.90;;;16.80;99.90;;;;;;5010385;28;20084;-65
2022/09/23 11:31:10;;;;;;;1999.90;999.90;;;16.80;99.90;;;;;;5022313;28;20060;-65
2022/09/23 11:34:00;;;;;;;1999.90;999.90;;;16.70;99.90;;;;;;5018524;28;20061;-65
2022/09/23 11:36:35;;;;;;;1999.90;999.90;;;16.70;99.90;;;;;;5020830;28;20509;-65
2022/09/23 11:39:14;;;;;;;1999.90;999.90;;;16.70;99.90;;;;;;5035666;28;20398;-65
2022/09/23 11:41:41;;;;;;;1999.90;999.90;;;16.60;99.90;;;;;;5019749;28;20045;-65
2022/09/23 11:44:13;;;;;;;1999.90;999.90;;;16.70;99.90;;;;;;5007946;28;20406;-65
2022/09/23 11:46:50;;;;;;;1999.90;999.90;;;16.80;99.90;;;;;;5009279;28;20050;-65
2022/09/23 11:49:33;;;;;;;1999.90;999.90;;;16.80;99.90;;;;;;5021132;28;20081;-65
2022/09/23 11:52:12;;;;;;;1999.90;999.90;;;16.90;99.90;;;;;;5017131;28;20398;-65
2022/09/23 11:55:02;;;;;;;1999.90;999.90;;;16.90;99.90;;;;;;5014717;28;20038;-65
2022/09/23 11:57:54;;;;;;;1999.90;999.90;;;16.90;99.90;;;;;;5020412;28;20119;-65
2022/09/23 12:00:22;;;;;;;1999.90;999.90;;;16.90;99.90;;;;;;5020924;28;20498;-65
2022/09/23 12:03:08;;;;;;;1999.90;999.90;;;16.90;99.90;;;;;;5021926;28;20116;-65
2022/09/23 12:06:00;;;;;;;1999.90;999.90;;;16.80;99.90;;;;;;5036698;28;20061;-65
2022/09/23 12:08:28;;;;;;;1999.90;999.90;;;16.80;99.90;;;;;;5027639;28;20048;-65
2022/09/23 12:11:20;;;;;;;1999.90;999.90;;;16.80;99.90;;;;;;5021875;28;20800;-65
2022/09/23 12:14:14;;;;;;;1999.90;999.90;;;16.80;99.90;;;;;;5006845;28;20054;-65
2022/09/23 12:16:58;;;;;;;1999.90;999.90;;;16.80;99.90;;;;;;5024602;28;20703;-65
2022/09/23 12:19:35;;;;;;;1999.90;999.90;;;16.80;99.90;;;;;;5023298;28;20117;-65
2022/09/23 12:22:39;;;;;;;1999.90;999.90;;;16.90;99.90;;;;;;5014205;28;20034;-65
2022/09/23 12:25:16;;;;;;;1999.90;999.90;;;17.00;99.90;;;;;;5022994;28;20418;-65
2022/09/23 12:27:50;;;;;;;1999.90;999.90;;;17.00;99.90;;;;;;5027754;28;20052;-65
2022/09/23 12:30:19;;;;;;;1999.90;999.90;;;17.10;99.90;;;;;;5027654;28;20064;-65
2022/09/23 12:32:45;;;;;;;1999.90;999.90;;;17.10;99.90;;;;;;5025963;28;20050;-65
2022/09/23 12:35:36;;;;;;;1999.90;999.90;;;17.20;99.90;;;;;;5037194;28;20612;-65
2022/09/23 12:38:12;;;;;;;1999.90;999.90;;;17.10;99.90;;;;;;5015278;28;20034;-65
2022/09/23 12:40:43;;;;;;;1999.90;999.90;;;17.10;99.90;;;;;;5019374;28;20046;-65
2022/09/23 12:43:28;;;;;;;1999.90;999.90;;;17.10;99.90;;;;;;5021882;28;20513;-65